createdAt,value
2022-09-26T00:00:50.604Z,100.00
2022-09-26T00:03:16.958Z,100.00
2022-09-26T00:05:44.627Z,100.00
2022-09-26T00:08:10.978Z,100.00
2022-09-26T00:10:37.467Z,100.00
2022-09-26T00:13:04.203Z,100.00
2022-09-26T00:15:30.859Z,100.00
2022-09-26T00:17:57.197Z,100.00
2022-09-26T00:20:23.497Z,100.00
2022-09-26T00:22:49.810Z,100.00
2022-09-26T00:25:16.459Z,100.00
2022-09-26T00:27:43.020Z,100.00
2022-09-26T00:30:09.929Z,100.00
2022-09-26T00:32:36.267Z,100.00
2022-09-26T00:35:02.616Z,100.00
2022-09-26T00:37:29.292Z,100.00
2022-09-26T00:39:55.690Z,100.00
2022-09-26T00:42:22.918Z,100.00
2022-09-26T00:44:53.028Z,100.00
2022-09-26T00:47:26.230Z,100.00
2022-09-26T00:49:58.316Z,100.00
2022-09-26T00:52:29.643Z,100.00
2022-09-26T00:55:00.877Z,100.00
2022-09-26T00:57:35.423Z,100.00
2022-09-26T01:00:07.366Z,100.00
2022-09-26T01:02:34.173Z,100.00
2022-09-26T01:05:02.989Z,100.00
2022-09-26T01:07:30.240Z,100.00
2022-09-26T01:09:57.700Z,100.00
2022-09-26T01:12:24.550Z,100.00
2022-09-26T01:14:53.792Z,100.00
2022-09-26T01:17:23.223Z,100.00
2022-09-26T01:20:03.053Z,100.00
2022-09-26T01:22:56.506Z,100.00
2022-09-26T01:26:09.401Z,100.00
2022-09-26T01:28:56.729Z,100.00
2022-09-26T01:31:49.212Z,100.00
2022-09-26T01:34:29.179Z,100.00
2022-09-26T01:37:14.308Z,100.00
2022-09-26T01:40:22.160Z,100.00
2022-09-26T01:43:05.235Z,100.00
2022-09-26T01:45:46.318Z,100.00
2022-09-26T01:48:14.051Z,100.00
2022-09-26T01:50:53.383Z,100.00
2022-09-26T01:53:26.755Z,100.00
2022-09-26T01:55:59.278Z,100.00
2022-09-26T01:58:29.031Z,100.00
2022-09-26T02:01:00.049Z,100.00
2022-09-26T02:03:36.137Z,100.00
2022-09-26T02:06:13.268Z,100.00
2022-09-26T02:09:02.331Z,100.00
2022-09-26T02:11:28.617Z,100.00
2022-09-26T02:14:07.281Z,100.00
2022-09-26T02:17:00.277Z,100.00
2022-09-26T02:19:33.391Z,100.00
2022-09-26T02:22:01.546Z,100.00
2022-09-26T02:24:28.989Z,100.00
2022-09-26T02:26:55.606Z,100.00
2022-09-26T02:29:23.373Z,100.00
2022-09-26T02:32:13.210Z,100.00
2022-09-26T02:34:45.427Z,100.00
2022-09-26T02:37:13.516Z,100.00
2022-09-26T02:39:42.059Z,100.00
2022-09-26T02:42:33.946Z,100.00
2022-09-26T02:45:12.521Z,100.00
2022-09-26T02:48:05.393Z,100.00
2022-09-26T02:50:57.661Z,100.00
2022-09-26T02:53:40.539Z,100.00
2022-09-26T02:56:09.924Z,100.00
2022-09-26T02:59:01.515Z,100.00
2022-09-26T03:01:37.995Z,100.00
2022-09-26T03:04:11.966Z,100.00
2022-09-26T03:06:45.012Z,100.00
2022-09-26T03:09:14.997Z,100.00
2022-09-26T03:11:43.711Z,100.00
2022-09-26T03:14:12.387Z,100.00
2022-09-26T03:16:42.479Z,100.00
2022-09-26T03:19:30.551Z,100.00
2022-09-26T03:21:57.708Z,100.00
2022-09-26T03:24:24.775Z,100.00
2022-09-26T03:26:51.711Z,100.00
2022-09-26T03:29:18.681Z,100.00
2022-09-26T03:31:45.036Z,100.00
2022-09-26T03:34:11.443Z,100.00
2022-09-26T03:36:38.234Z,100.00
2022-09-26T03:39:04.579Z,100.00
2022-09-26T03:41:30.898Z,100.00
2022-09-26T03:43:57.606Z,100.00
2022-09-26T03:46:23.969Z,100.00
2022-09-26T03:48:50.465Z,100.00
2022-09-26T03:51:17.214Z,100.00
2022-09-26T03:53:45.518Z,100.00
2022-09-26T03:56:14.872Z,100.00
2022-09-26T03:58:42.419Z,100.00
2022-09-26T04:01:16.696Z,100.00
2022-09-26T04:03:49.975Z,100.00
2022-09-26T04:06:17.894Z,100.00
2022-09-26T04:08:44.553Z,100.00
2022-09-26T04:11:13.203Z,100.00
2022-09-26T04:13:51.431Z,100.00
2022-09-26T04:16:19.423Z,100.00
2022-09-26T04:18:46.032Z,100.00
2022-09-26T04:21:13.538Z,100.00
2022-09-26T04:23:41.862Z,100.00
2022-09-26T04:26:09.787Z,100.00
2022-09-26T04:28:36.720Z,100.00
2022-09-26T04:31:05.016Z,100.00
2022-09-26T04:33:31.475Z,100.00
2022-09-26T04:36:02.690Z,100.00
2022-09-26T04:38:29.115Z,100.00
2022-09-26T04:40:55.685Z,100.00
2022-09-26T04:43:22.211Z,100.00
2022-09-26T04:45:48.677Z,100.00
2022-09-26T04:48:15.017Z,100.00
2022-09-26T04:50:41.344Z,100.00
2022-09-26T04:53:07.906Z,100.00
2022-09-26T04:55:34.279Z,100.00
2022-09-26T04:58:00.687Z,100.00
2022-09-26T05:00:27.105Z,100.00
2022-09-26T05:02:53.548Z,100.00
2022-09-26T05:05:19.864Z,100.00
2022-09-26T05:07:46.184Z,100.00
2022-09-26T05:10:12.700Z,100.00
2022-09-26T05:12:39.272Z,100.00
2022-09-26T05:15:09.967Z,100.00
2022-09-26T05:17:37.867Z,100.00
2022-09-26T05:20:06.846Z,100.00
2022-09-26T05:22:33.179Z,100.00
2022-09-26T05:24:59.878Z,100.00
2022-09-26T05:27:26.360Z,100.00
2022-09-26T05:29:52.895Z,100.00
2022-09-26T05:32:19.327Z,100.00
2022-09-26T05:34:45.785Z,100.00
2022-09-26T05:37:12.300Z,100.00
2022-09-26T05:39:42.282Z,100.00
2022-09-26T05:42:09.116Z,100.00
2022-09-26T05:44:35.471Z,100.00
2022-09-26T05:47:01.878Z,100.00
2022-09-26T05:49:28.243Z,100.00
2022-09-26T05:51:54.688Z,100.00
2022-09-26T05:54:21.018Z,100.00
2022-09-26T05:56:49.863Z,100.00
2022-09-26T05:59:16.363Z,100.00
2022-09-26T06:01:42.989Z,100.00
2022-09-26T06:04:09.747Z,100.00
2022-09-26T06:06:36.365Z,100.00
2022-09-26T06:09:03.207Z,100.00
2022-09-26T06:11:29.673Z,100.00
2022-09-26T06:13:57.345Z,100.00
2022-09-26T06:16:24.007Z,100.00
2022-09-26T06:18:52.127Z,100.00
2022-09-26T06:21:19.837Z,100.00
2022-09-26T06:23:46.419Z,100.00
2022-09-26T06:26:22.205Z,100.00
2022-09-26T06:28:48.996Z,100.00
2022-09-26T06:31:17.930Z,100.00
2022-09-26T06:33:44.339Z,100.00
2022-09-26T06:36:12.059Z,100.00
2022-09-26T06:38:38.722Z,100.00
2022-09-26T06:41:05.723Z,100.00
2022-09-26T06:43:32.082Z,100.00
2022-09-26T06:45:58.731Z,100.00
2022-09-26T06:48:25.104Z,100.00
2022-09-26T06:50:52.991Z,100.00
2022-09-26T06:53:19.761Z,100.00
2022-09-26T06:55:46.492Z,100.00
2022-09-26T06:58:13.524Z,100.00
2022-09-26T07:00:40.269Z,100.00
2022-09-26T07:03:06.942Z,100.00
2022-09-26T07:05:33.280Z,100.00
2022-09-26T07:07:59.747Z,100.00
2022-09-26T07:10:26.337Z,100.00
2022-09-26T07:12:52.650Z,100.00
2022-09-26T07:15:20.229Z,100.00
2022-09-26T07:17:48.601Z,100.00
2022-09-26T07:20:18.448Z,100.00
2022-09-26T07:22:45.915Z,100.00
2022-09-26T07:25:13.704Z,100.00
2022-09-26T07:27:41.280Z,100.00
2022-09-26T07:30:09.166Z,100.00
2022-09-26T07:32:35.755Z,100.00
2022-09-26T07:35:03.662Z,100.00
2022-09-26T07:37:31.205Z,100.00
2022-09-26T07:40:01.420Z,100.00
2022-09-26T07:42:28.271Z,100.00
2022-09-26T07:45:24.864Z,100.00
2022-09-26T07:47:41.259Z,100.00
2022-09-26T07:50:07.886Z,100.00
2022-09-26T07:52:34.620Z,100.00
2022-09-26T07:55:01.199Z,100.00
2022-09-26T07:57:27.565Z,100.00
2022-09-26T07:59:57.011Z,100.00
2022-09-26T08:02:25.879Z,100.00
2022-09-26T08:04:52.479Z,100.00
2022-09-26T08:07:18.836Z,100.00
2022-09-26T08:09:45.350Z,100.00
2022-09-26T08:12:11.839Z,100.00
2022-09-26T08:14:38.167Z,100.00
2022-09-26T08:17:04.479Z,100.00
2022-09-26T08:19:30.893Z,100.00
2022-09-26T08:21:57.290Z,100.00
2022-09-26T08:24:23.841Z,100.00
2022-09-26T08:26:50.333Z,100.00
2022-09-26T08:29:16.750Z,100.00
2022-09-26T08:31:43.344Z,100.00
2022-09-26T08:34:09.935Z,100.00
2022-09-26T08:36:36.273Z,100.00
2022-09-26T08:39:03.946Z,100.00
2022-09-26T08:41:47.116Z,100.00
2022-09-26T08:44:16.385Z,100.00
2022-09-26T08:46:57.043Z,100.00
2022-09-26T08:49:38.522Z,100.00
2022-09-26T08:52:27.016Z,100.00
2022-09-26T08:54:55.621Z,100.00
2022-09-26T08:58:02.985Z,100.00
2022-09-26T09:00:33.440Z,100.00
2022-09-26T09:03:08.195Z,100.00
2022-09-26T09:05:42.070Z,100.00
2022-09-26T09:08:19.735Z,97.58
2022-09-26T09:10:52.815Z,92.28
2022-09-26T09:13:31.280Z,90.50
2022-09-26T09:16:15.957Z,87.82
2022-09-26T09:19:09.777Z,86.47
2022-09-26T09:21:48.247Z,85.79
2022-09-26T09:24:23.228Z,76.34
2022-09-26T09:30:17.951Z,73.14
2022-09-26T09:32:55.009Z,78.17
2022-09-26T09:35:42.492Z,80.75
2022-09-26T09:38:18.192Z,87.37
2022-09-26T09:41:00.693Z,86.92
2022-09-26T09:43:48.405Z,80.62
2022-09-26T09:46:38.450Z,71.48
2022-09-26T09:49:07.760Z,68.31
2022-09-26T09:51:41.384Z,69.40
2022-09-26T09:54:39.863Z,69.38
2022-09-26T09:57:34.621Z,71.13
2022-09-26T10:00:13.007Z,72.41
2022-09-26T10:02:52.515Z,75.17
2022-09-26T10:05:48.173Z,68.61
2022-09-26T10:08:18.779Z,68.04
2022-09-26T10:11:03.793Z,68.62
2022-09-26T10:13:30.578Z,72.44
2022-09-26T10:16:07.844Z,67.50
2022-09-26T10:19:12.487Z,66.42
2022-09-26T10:21:46.378Z,64.19
2022-09-26T10:24:31.222Z,63.54
2022-09-26T10:26:57.683Z,65.72
2022-09-26T10:29:31.624Z,59.83
2022-09-26T10:31:58.728Z,61.24
2022-09-26T10:34:30.407Z,61.55
2022-09-26T10:36:57.565Z,62.00
2022-09-26T10:39:30.621Z,61.38
2022-09-26T10:41:58.817Z,59.17
2022-09-26T10:44:36.079Z,56.47
2022-09-26T10:47:05.632Z,56.84
2022-09-26T10:49:39.544Z,56.70
2022-09-26T10:52:08.790Z,54.76
2022-09-26T10:54:43.973Z,53.79
2022-09-26T10:57:19.693Z,57.42
2022-09-26T10:59:47.542Z,54.07
2022-09-26T11:02:19.669Z,53.92
2022-09-26T11:04:46.716Z,56.22
2022-09-26T11:07:25.323Z,55.09
2022-09-26T11:09:53.464Z,56.70
2022-09-26T11:12:23.927Z,55.12
2022-09-26T11:14:54.051Z,53.19
2022-09-26T11:17:20.469Z,50.83
2022-09-26T11:20:01.359Z,50.46
2022-09-26T11:22:38.129Z,52.87
2022-09-26T11:25:22.843Z,51.74
2022-09-26T11:27:58.295Z,50.40
2022-09-26T11:30:27.671Z,49.31
2022-09-26T11:32:57.783Z,49.78
2022-09-26T11:35:33.624Z,48.93
2022-09-26T11:38:11.215Z,50.94
2022-09-26T11:40:54.533Z,52.90
2022-09-26T11:43:53.424Z,54.55
2022-09-26T11:46:44.825Z,52.47
2022-09-26T11:49:36.642Z,53.16
2022-09-26T11:52:08.812Z,56.42
2022-09-26T11:55:22.730Z,60.91
2022-09-26T11:58:30.689Z,65.37
2022-09-26T12:01:25.403Z,63.60
2022-09-26T12:04:26.514Z,58.87
2022-09-26T12:07:18.112Z,55.58
2022-09-26T12:10:11.922Z,49.41
2022-09-26T12:12:54.433Z,47.58
2022-09-26T12:15:26.762Z,45.47
2022-09-26T12:18:16.414Z,47.42
2022-09-26T12:20:45.689Z,46.41
2022-09-26T12:23:27.332Z,48.00
2022-09-26T12:26:25.600Z,49.43
2022-09-26T12:29:29.870Z,52.69
2022-09-26T12:32:45.938Z,52.04
2022-09-26T12:35:50.389Z,50.69
2022-09-26T12:39:01.848Z,50.23
2022-09-26T12:42:06.816Z,51.46
2022-09-26T12:44:59.407Z,50.83
2022-09-26T12:47:44.584Z,49.58
2022-09-26T12:50:35.993Z,46.22
2022-09-26T12:53:20.889Z,45.35
2022-09-26T12:55:53.229Z,43.07
2022-09-26T12:58:28.418Z,44.78
2022-09-26T13:01:13.552Z,43.00
2022-09-26T13:04:01.339Z,44.20
2022-09-26T13:07:02.408Z,44.67
2022-09-26T13:09:45.216Z,45.59
2022-09-26T13:12:24.030Z,47.37
2022-09-26T13:15:18.657Z,47.07
2022-09-26T13:17:51.366Z,48.28
2022-09-26T13:20:28.975Z,48.36
2022-09-26T13:23:27.818Z,49.88
2022-09-26T13:26:01.918Z,53.25
2022-09-26T13:29:12.766Z,54.30
2022-09-26T13:31:43.736Z,53.64
2022-09-26T13:34:23.659Z,59.33
2022-09-26T13:36:51.131Z,63.36
2022-09-26T13:39:40.566Z,68.84
2022-09-26T13:42:26.455Z,69.94
2022-09-26T13:45:29.002Z,73.81
2022-09-26T13:48:10.183Z,70.62
2022-09-26T13:51:01.910Z,70.11
2022-09-26T13:53:33.400Z,66.59
2022-09-26T13:56:28.719Z,63.72
2022-09-26T13:59:22.266Z,60.70
2022-09-26T14:02:16.362Z,59.33
2022-09-26T14:04:44.081Z,58.29
2022-09-26T14:07:10.344Z,58.78
2022-09-26T14:09:52.359Z,61.13
2022-09-26T14:12:30.774Z,61.76
2022-09-26T14:15:16.113Z,63.86
2022-09-26T14:17:42.568Z,65.59
2022-09-26T14:20:23.039Z,64.25
2022-09-26T14:22:51.720Z,62.42
2022-09-26T14:25:45.801Z,62.36
2022-09-26T14:28:32.098Z,63.84
2022-09-26T14:31:19.732Z,64.47
2022-09-26T14:33:46.392Z,64.64
2022-09-26T14:36:29.106Z,62.81
2022-09-26T14:38:55.698Z,65.80
2022-09-26T14:41:27.372Z,65.88
2022-09-26T14:44:01.590Z,66.82
2022-09-26T14:46:29.792Z,67.22
2022-09-26T14:49:02.876Z,66.03
2022-09-26T14:51:33.641Z,66.19
2022-09-26T14:54:07.757Z,66.17
2022-09-26T14:56:44.003Z,66.12
2022-09-26T14:59:16.045Z,65.43
2022-09-26T15:01:44.311Z,65.75
2022-09-26T15:04:29.846Z,63.64
2022-09-26T15:07:05.661Z,61.35
2022-09-26T15:09:39.992Z,62.91
2022-09-26T15:12:15.950Z,62.86
2022-09-26T15:14:52.579Z,62.50
2022-09-26T15:17:27.955Z,62.49
2022-09-26T15:19:57.339Z,63.87
2022-09-26T15:22:27.222Z,64.24
2022-09-26T15:24:55.286Z,64.96
2022-09-26T15:27:28.238Z,65.90
2022-09-26T15:30:01.795Z,63.34
2022-09-26T15:32:31.203Z,61.93
2022-09-26T15:34:59.716Z,61.69
2022-09-26T15:37:29.835Z,61.34
2022-09-26T15:39:57.016Z,62.17
2022-09-26T15:42:30.225Z,63.52
2022-09-26T15:44:59.234Z,63.15
2022-09-26T15:47:31.474Z,62.33
2022-09-26T15:50:09.998Z,63.34
2022-09-26T15:52:48.495Z,64.51
2022-09-26T15:55:21.571Z,64.70
2022-09-26T15:57:49.827Z,63.79
2022-09-26T16:00:17.576Z,63.08
2022-09-26T16:02:44.107Z,64.96
2022-09-26T16:05:13.154Z,63.81
2022-09-26T16:07:40.700Z,64.83
2022-09-26T16:10:31.683Z,65.79
2022-09-26T16:12:58.129Z,65.04
2022-09-26T16:15:30.248Z,65.79
2022-09-26T16:17:58.446Z,66.82
2022-09-26T16:20:30.408Z,68.28
2022-09-26T16:23:03.335Z,68.80
2022-09-26T16:25:42.028Z,69.88
2022-09-26T16:28:08.347Z,71.17
2022-09-26T16:30:34.642Z,70.13
2022-09-26T16:33:06.976Z,71.88
2022-09-26T16:35:35.888Z,72.95
2022-09-26T16:38:05.652Z,73.25
2022-09-26T16:40:34.738Z,76.32
2022-09-26T16:43:15.417Z,75.97
2022-09-26T16:46:15.274Z,75.98
2022-09-26T16:48:50.555Z,77.60
2022-09-26T16:51:21.298Z,77.51
2022-09-26T16:53:49.463Z,76.78
2022-09-26T16:56:18.396Z,76.09
2022-09-26T16:58:52.933Z,77.21
2022-09-26T17:01:20.058Z,78.11
2022-09-26T17:03:46.541Z,77.71
2022-09-26T17:06:12.985Z,79.73
2022-09-26T17:08:40.067Z,79.26
2022-09-26T17:11:14.016Z,79.77
2022-09-26T17:13:40.591Z,80.44
2022-09-26T17:16:07.350Z,79.98
2022-09-26T17:18:34.075Z,81.25
2022-09-26T17:21:01.372Z,82.46
2022-09-26T17:23:45.082Z,81.77
2022-09-26T17:26:18.872Z,82.45
2022-09-26T17:28:45.753Z,81.58
2022-09-26T17:31:17.975Z,83.19
2022-09-26T17:33:45.353Z,83.57
2022-09-26T17:36:20.610Z,84.23
2022-09-26T17:38:47.141Z,84.41
2022-09-26T17:41:13.847Z,85.35
2022-09-26T17:43:41.036Z,85.86
2022-09-26T17:46:15.173Z,85.92
2022-09-26T17:48:43.381Z,86.67
2022-09-26T17:51:10.467Z,87.75
2022-09-26T17:53:39.303Z,88.57
2022-09-26T17:56:06.309Z,89.01
2022-09-26T17:58:33.789Z,89.44
2022-09-26T18:01:01.954Z,89.89
2022-09-26T18:03:32.425Z,89.65
2022-09-26T18:05:58.895Z,89.82
2022-09-26T18:08:35.388Z,91.34
2022-09-26T18:11:06.874Z,92.04
2022-09-26T18:13:38.121Z,94.42
2022-09-26T18:16:05.192Z,96.20
2022-09-26T18:18:32.872Z,95.88
2022-09-26T18:21:00.892Z,94.04
2022-09-26T18:23:35.700Z,94.05
2022-09-26T18:26:02.386Z,94.56
2022-09-26T18:28:30.241Z,98.28
2022-09-26T18:30:58.608Z,100.00
2022-09-26T18:33:25.357Z,100.00
2022-09-26T18:35:55.430Z,100.00
2022-09-26T18:38:22.045Z,100.00
2022-09-26T18:40:52.986Z,100.00
2022-09-26T18:43:22.953Z,100.00
2022-09-26T18:45:50.012Z,100.00
2022-09-26T18:48:26.005Z,100.00
2022-09-26T18:50:53.961Z,100.00
2022-09-26T18:53:22.806Z,100.00
2022-09-26T18:55:49.642Z,100.00
2022-09-26T18:58:18.432Z,100.00
2022-09-26T19:00:45.130Z,100.00
2022-09-26T19:03:11.584Z,100.00
2022-09-26T19:05:37.939Z,100.00
2022-09-26T19:08:04.751Z,100.00
2022-09-26T19:10:31.146Z,100.00
2022-09-26T19:12:57.793Z,100.00
2022-09-26T19:15:24.466Z,100.00
2022-09-26T19:17:50.966Z,100.00
2022-09-26T19:20:17.298Z,100.00
2022-09-26T19:22:43.704Z,100.00
2022-09-26T19:25:10.416Z,100.00
2022-09-26T19:27:50.007Z,100.00
2022-09-26T19:30:21.357Z,100.00
2022-09-26T19:32:51.331Z,100.00
2022-09-26T19:35:24.354Z,100.00
2022-09-26T19:37:51.222Z,100.00
2022-09-26T19:40:19.683Z,100.00
2022-09-26T19:42:46.229Z,100.00
2022-09-26T19:45:14.302Z,100.00
2022-09-26T19:47:46.825Z,100.00
2022-09-26T19:50:19.234Z,100.00
2022-09-26T19:52:46.226Z,100.00
2022-09-26T19:55:24.119Z,100.00
2022-09-26T19:57:53.235Z,100.00
2022-09-26T20:00:20.268Z,100.00
2022-09-26T20:02:50.515Z,100.00
2022-09-26T20:05:25.779Z,100.00
2022-09-26T20:07:52.918Z,100.00
2022-09-26T20:10:21.878Z,100.00
2022-09-26T20:12:48.392Z,100.00
2022-09-26T20:15:16.368Z,100.00
2022-09-26T20:17:46.982Z,100.00
2022-09-26T20:20:18.776Z,100.00
2022-09-26T20:22:46.558Z,100.00
2022-09-26T20:25:26.829Z,100.00
2022-09-26T20:27:53.589Z,100.00
2022-09-26T20:30:20.372Z,100.00
2022-09-26T20:32:47.131Z,100.00
2022-09-26T20:35:17.123Z,100.00
2022-09-26T20:37:44.072Z,100.00
2022-09-26T20:40:16.465Z,100.00
2022-09-26T20:42:45.974Z,100.00
2022-09-26T20:45:19.051Z,100.00
2022-09-26T20:47:47.260Z,100.00
2022-09-26T20:50:19.345Z,100.00
2022-09-26T20:52:46.001Z,100.00
2022-09-26T20:55:17.099Z,100.00
2022-09-26T20:57:44.174Z,100.00
2022-09-26T21:00:15.753Z,100.00
2022-09-26T21:02:42.356Z,100.00
2022-09-26T21:05:25.726Z,100.00
2022-09-26T21:07:53.477Z,100.00
2022-09-26T21:10:22.716Z,100.00
2022-09-26T21:12:49.170Z,100.00
2022-09-26T21:15:15.811Z,100.00
2022-09-26T21:17:44.872Z,100.00
2022-09-26T21:20:22.635Z,100.00
2022-09-26T21:22:49.286Z,100.00
2022-09-26T21:25:18.890Z,100.00
2022-09-26T21:27:53.030Z,100.00
2022-09-26T21:30:21.345Z,100.00
2022-09-26T21:32:53.431Z,100.00
2022-09-26T21:35:23.096Z,100.00
2022-09-26T21:37:52.262Z,100.00
2022-09-26T21:40:21.079Z,100.00
2022-09-26T21:42:50.734Z,100.00
2022-09-26T21:45:22.377Z,100.00
2022-09-26T21:47:51.864Z,100.00
2022-09-26T21:50:18.199Z,100.00
2022-09-26T21:52:50.902Z,100.00
2022-09-26T21:55:23.970Z,100.00
2022-09-26T21:57:53.953Z,100.00
2022-09-26T22:00:20.458Z,100.00
2022-09-26T22:02:46.884Z,100.00
2022-09-26T22:05:13.248Z,100.00
2022-09-26T22:07:39.927Z,100.00
2022-09-26T22:10:06.929Z,100.00
2022-09-26T22:12:33.377Z,100.00
2022-09-26T22:14:59.805Z,100.00
2022-09-26T22:17:26.208Z,100.00
2022-09-26T22:19:53.198Z,100.00
2022-09-26T22:22:20.079Z,100.00
2022-09-26T22:24:46.552Z,100.00
2022-09-26T22:27:13.122Z,100.00
2022-09-26T22:29:39.517Z,100.00
2022-09-26T22:32:05.858Z,100.00
2022-09-26T22:34:32.326Z,100.00
2022-09-26T22:36:58.829Z,100.00
2022-09-26T22:39:25.144Z,100.00
2022-09-26T22:41:51.524Z,100.00
2022-09-26T22:44:17.831Z,100.00
2022-09-26T22:46:44.379Z,100.00
2022-09-26T22:49:10.771Z,100.00
2022-09-26T22:51:37.437Z,100.00
2022-09-26T22:54:03.951Z,100.00
2022-09-26T22:56:30.278Z,100.00
2022-09-26T22:58:56.777Z,100.00
2022-09-26T23:01:26.376Z,100.00
2022-09-26T23:03:53.357Z,100.00
2022-09-26T23:06:21.781Z,100.00
2022-09-26T23:08:48.706Z,100.00
2022-09-26T23:11:15.574Z,100.00
2022-09-26T23:13:42.229Z,100.00
2022-09-26T23:16:14.836Z,100.00
2022-09-26T23:18:41.869Z,100.00
2022-09-26T23:21:11.016Z,100.00
2022-09-26T23:23:38.440Z,100.00
2022-09-26T23:26:07.086Z,100.00
2022-09-26T23:28:34.493Z,100.00
2022-09-26T23:31:05.773Z,100.00
2022-09-26T23:33:32.235Z,100.00
2022-09-26T23:35:59.718Z,100.00
2022-09-26T23:38:26.998Z,100.00
2022-09-26T23:40:53.924Z,100.00
2022-09-26T23:43:20.625Z,100.00
2022-09-26T23:45:47.557Z,100.00
2022-09-26T23:48:14.263Z,100.00
2022-09-26T23:50:42.331Z,100.00
2022-09-26T23:53:08.688Z,100.00
2022-09-26T23:55:35.023Z,100.00
2022-09-26T23:58:01.967Z,100.00
